Time;durP1;ratioP1;P1;durP2;ratioP2;P2;SDS_P1;SDS_P2;PMS_P1;PMS_P2;Temp;Humidity;BMP_temperature;BMP_pressure;BME280_temperature;BME280_humidity;BME280_pressure;Samples;Min_cycle;Max_cycle;Signal;HPM_P1;HPM_P2
2024/02/06 00:01:51;;;;;;;13.23;3.05;;;9.60;99.90;;;;;;5109540;28;20052;-86
2024/02/06 00:04:17;;;;;;;13.77;3.35;;;9.60;99.90;;;;;;5102750;28;20040;-87
2024/02/06 00:06:44;;;;;;;10.65;3.08;;;10.10;99.90;;;;;;5103180;28;20044;-87
2024/02/06 00:09:11;;;;;;;13.57;3.40;;;9.60;99.90;;;;;;5105176;28;20043;-86
2024/02/06 00:11:38;;;;;;;12.07;3.20;;;10.00;99.90;;;;;;5110772;28;20114;-87
2024/02/06 00:14:05;;;;;;;14.20;3.38;;;9.70;99.90;;;;;;5103020;28;20028;-86
2024/02/06 00:16:32;;;;;;;12.63;2.60;;;9.70;99.90;;;;;;5101238;28;20465;-87
2024/02/06 00:18:58;;;;;;;13.05;3.22;;;9.70;99.90;;;;;;5097598;28;20040;-87
2024/02/06 00:21:25;;;;;;;7.63;2.55;;;9.70;99.90;;;;;;5093903;28;20042;-87
2024/02/06 00:23:52;;;;;;;15.48;3.00;;;9.60;99.90;;;;;;5093511;28;20039;-87
2024/02/06 00:26:18;;;;;;;19.85;3.70;;;9.70;99.90;;;;;;5110761;28;20075;-87
2024/02/06 00:28:46;;;;;;;15.35;3.40;;;9.70;99.90;;;;;;5113714;28;20044;-87
2024/02/06 00:31:12;;;;;;;11.40;2.83;;;9.70;99.90;;;;;;5095613;28;20040;-87
2024/02/06 00:33:39;;;;;;;11.02;2.83;;;9.80;99.90;;;;;;5110107;28;20035;-87
2024/02/06 00:36:06;;;;;;;10.25;2.80;;;9.70;99.90;;;;;;5101388;28;20032;-87
2024/02/06 00:38:32;;;;;;;10.65;3.20;;;9.70;99.90;;;;;;5114628;28;20490;-88
2024/02/06 00:40:59;;;;;;;14.27;3.30;;;9.70;99.90;;;;;;5099858;28;20039;-87
2024/02/06 00:43:26;;;;;;;18.10;3.70;;;9.70;99.90;;;;;;5102237;28;20040;-87
2024/02/06 00:45:53;;;;;;;11.60;3.53;;;9.70;99.90;;;;;;5098792;28;20036;-87
2024/02/06 00:48:19;;;;;;;12.88;2.58;;;9.90;99.90;;;;;;5105009;28;20051;-87
2024/02/06 00:50:46;;;;;;;13.88;2.60;;;9.70;99.90;;;;;;5099030;28;20048;-87
2024/02/06 00:53:13;;;;;;;11.93;2.83;;;9.70;99.90;;;;;;5105576;28;20404;-87
2024/02/06 00:55:39;;;;;;;12.13;2.88;;;9.70;99.90;;;;;;5097953;28;20049;-87
2024/02/06 00:58:06;;;;;;;16.45;3.38;;;10.10;99.90;;;;;;5106068;28;20522;-87
2024/02/06 01:00:35;;;;;;;14.38;3.10;;;9.70;99.90;;;;;;5109028;28;20043;-86
2024/02/06 01:03:02;;;;;;;14.32;3.03;;;9.70;99.90;;;;;;5101997;28;20044;-86
2024/02/06 01:05:28;;;;;;;11.07;2.92;;;9.70;99.90;;;;;;5104228;28;20035;-87
2024/02/06 01:07:55;;;;;;;15.35;2.72;;;9.70;99.90;;;;;;5116123;28;20776;-87
2024/02/06 01:10:22;;;;;;;9.40;2.72;;;9.60;99.90;;;;;;5098690;28;20040;-86
2024/02/06 01:12:48;;;;;;;8.02;2.67;;;9.70;99.90;;;;;;5099694;28;20185;-87
2024/02/06 01:15:15;;;;;;;14.10;3.50;;;9.70;99.90;;;;;;5097181;28;20035;-87
2024/02/06 01:17:42;;;;;;;12.68;2.90;;;9.60;99.90;;;;;;5108588;28;20469;-87
2024/02/06 01:20:09;;;;;;;11.07;2.80;;;9.70;99.90;;;;;;5121160;28;20040;-87
2024/02/06 01:22:35;;;;;;;13.20;2.72;;;9.70;99.90;;;;;;5109518;28;20039;-87
2024/02/06 01:25:03;;;;;;;12.65;2.83;;;9.70;99.90;;;;;;5121896;28;20386;-87
2024/02/06 01:27:30;;;;;;;11.35;2.55;;;9.70;99.90;;;;;;5110703;28;20109;-87
2024/02/06 01:29:57;;;;;;;13.38;3.08;;;9.70;99.90;;;;;;5110570;28;20032;-87
2024/02/06 01:32:23;;;;;;;11.85;2.95;;;10.20;99.90;;;;;;5122353;28;20044;-87
2024/02/06 01:34:50;;;;;;;14.35;3.17;;;9.70;99.90;;;;;;5106567;28;20032;-87
2024/02/06 01:37:17;;;;;;;11.65;2.88;;;9.60;99.90;;;;;;5104915;28;20040;-87
2024/02/06 01:39:44;;;;;;;16.42;2.85;;;9.60;99.90;;;;;;5102532;28;20434;-87
2024/02/06 01:42:11;;;;;;;9.48;3.00;;;9.70;99.90;;;;;;5101450;28;20038;-87
2024/02/06 01:44:37;;;;;;;19.25;2.78;;;10.10;99.90;;;;;;5097777;28;20040;-87
2024/02/06 01:47:07;;;;;;;13.45;2.72;;;9.70;99.90;;;;;;5101936;28;20594;-87
2024/02/06 01:49:35;;;;;;;14.95;2.90;;;9.70;99.90;;;;;;5109783;28;20515;-87
2024/02/06 01:52:03;;;;;;;12.77;3.10;;;10.00;99.90;;;;;;5104034;28;20036;-87
2024/02/06 01:54:29;;;;;;;13.00;2.70;;;9.70;99.90;;;;;;5108694;28;20027;-86
2024/02/06 01:56:56;;;;;;;19.90;3.63;;;9.70;99.90;;;;;;5104165;28;20095;-87
2024/02/06 01:59:23;;;;;;;14.45;3.08;;;9.80;99.90;;;;;;5115316;28;20059;-87
2024/02/06 02:01:50;;;;;;;17.63;3.30;;;9.80;99.90;;;;;;5107468;28;20084;-86
2024/02/06 02:04:17;;;;;;;9.00;2.55;;;9.70;99.90;;;;;;5108816;28;20054;-84
2024/02/06 02:06:44;;;;;;;10.90;2.83;;;9.70;99.90;;;;;;5102031;28;20044;-84
2024/02/06 02:09:10;;;;;;;15.73;3.25;;;9.70;99.90;;;;;;5095606;28;20036;-84
2024/02/06 02:11:37;;;;;;;10.85;2.55;;;9.70;99.90;;;;;;5108323;28;20506;-84
2024/02/06 02:14:04;;;;;;;10.88;2.80;;;9.70;99.90;;;;;;5098073;28;20067;-84
2024/02/06 02:16:30;;;;;;;14.98;3.33;;;9.70;99.90;;;;;;5096680;28;20157;-84
2024/02/06 02:18:58;;;;;;;13.63;2.80;;;9.60;99.90;;;;;;5105154;28;20126;-85
2024/02/06 02:21:26;;;;;;;12.32;3.35;;;9.70;99.90;;;;;;5110075;28;20027;-84
2024/02/06 02:23:53;;;;;;;16.08;3.30;;;9.80;99.90;;;;;;5121031;28;20044;-84
2024/02/06 02:26:20;;;;;;;11.52;3.20;;;9.70;99.90;;;;;;5121346;28;20505;-84
2024/02/06 02:28:48;;;;;;;16.38;3.42;;;9.70;99.90;;;;;;5106699;28;20047;-85
2024/02/06 02:31:16;;;;;;;20.27;3.00;;;9.70;99.90;;;;;;5095457;28;20553;-84
2024/02/06 02:33:43;;;;;;;9.60;2.90;;;9.70;99.90;;;;;;5095416;28;20040;-84
2024/02/06 02:36:10;;;;;;;13.80;2.80;;;9.70;99.90;;;;;;5098962;28;20032;-85
2024/02/06 02:38:38;;;;;;;13.07;2.92;;;9.70;99.90;;;;;;5108003;28;20127;-84
2024/02/06 02:41:05;;;;;;;10.82;2.80;;;9.80;99.90;;;;;;5111483;28;20119;-84
2024/02/06 02:43:32;;;;;;;16.75;3.13;;;9.70;99.90;;;;;;5107106;28;20502;-84
2024/02/06 02:45:58;;;;;;;15.30;4.30;;;9.90;99.90;;;;;;5095824;28;20090;-84
2024/02/06 02:48:25;;;;;;;12.73;3.33;;;9.70;99.90;;;;;;5098604;28;20036;-84
2024/02/06 02:50:52;;;;;;;14.00;3.83;;;9.80;99.90;;;;;;5112811;28;20410;-83
2024/02/06 02:53:18;;;;;;;24.70;3.85;;;9.70;99.90;;;;;;5101922;28;20029;-85
2024/02/06 02:55:45;;;;;;;15.45;3.67;;;9.70;99.90;;;;;;5099606;28;20093;-84
2024/02/06 02:58:12;;;;;;;13.43;3.75;;;9.70;99.90;;;;;;5104675;28;20044;-85
2024/02/06 03:00:38;;;;;;;10.73;2.88;;;9.70;99.90;;;;;;5094493;28;20093;-85
2024/02/06 03:03:06;;;;;;;15.98;3.22;;;10.10;99.90;;;;;;5095696;28;20054;-84
2024/02/06 03:05:32;;;;;;;16.73;3.15;;;9.70;99.90;;;;;;5127829;28;20040;-84
2024/02/06 03:07:59;;;;;;;13.80;3.38;;;9.70;99.90;;;;;;5110204;28;20035;-84
2024/02/06 03:10:27;;;;;;;16.17;2.92;;;9.70;99.90;;;;;;5096009;28;20502;-84
2024/02/06 03:12:53;;;;;;;18.48;3.63;;;9.70;99.90;;;;;;5103303;28;20039;-84
2024/02/06 03:15:20;;;;;;;14.27;2.80;;;9.70;99.90;;;;;;5101697;28;20118;-84
2024/02/06 03:17:51;;;;;;;14.55;3.17;;;9.70;99.90;;;;;;5113808;28;20131;-84
2024/02/06 03:20:19;;;;;;;15.98;3.05;;;9.70;99.90;;;;;;5098793;28;20039;-84
2024/02/06 03:22:46;;;;;;;9.55;2.88;;;9.70;99.90;;;;;;5107205;28;20123;-84
2024/02/06 03:25:13;;;;;;;13.30;3.22;;;10.00;99.90;;;;;;5099406;28;20111;-84
2024/02/06 03:27:45;;;;;;;17.55;3.00;;;9.70;99.90;;;;;;5104740;28;20485;-84
2024/02/06 03:30:12;;;;;;;21.92;3.63;;;9.70;99.90;;;;;;5098894;28;20071;-85
2024/02/06 03:32:39;;;;;;;17.98;3.47;;;9.70;99.90;;;;;;5093858;28;20044;-84
2024/02/06 03:35:07;;;;;;;13.57;3.45;;;9.70;99.90;;;;;;5094658;28;20043;-84
2024/02/06 03:37:34;;;;;;;19.20;3.70;;;9.70;99.90;;;;;;5094802;28;20058;-84
2024/02/06 03:40:00;;;;;;;16.23;3.28;;;9.70;99.90;;;;;;5094485;28;20036;-85
2024/02/06 03:42:27;;;;;;;14.30;3.97;;;9.70;99.90;;;;;;5098274;28;20036;-84
2024/02/06 03:44:54;;;;;;;19.63;3.53;;;9.70;99.90;;;;;;5094352;28;20040;-85
2024/02/06 03:47:21;;;;;;;14.00;3.65;;;9.70;99.90;;;;;;5110713;28;20066;-84
2024/02/06 03:49:47;;;;;;;17.15;4.43;;;9.80;99.90;;;;;;5097493;28;20032;-85
2024/02/06 03:52:14;;;;;;;21.02;3.90;;;9.70;99.90;;;;;;5099927;28;20044;-84
2024/02/06 03:54:40;;;;;;;19.85;3.72;;;9.70;99.90;;;;;;5106272;28;20035;-84
2024/02/06 03:57:07;;;;;;;17.27;4.13;;;9.80;99.90;;;;;;5098432;28;20036;-85
2024/02/06 03:59:34;;;;;;;18.08;3.95;;;9.80;99.90;;;;;;5111086;28;20048;-85
2024/02/06 04:02:03;;;;;;;24.50;3.83;;;9.80;99.90;;;;;;5093862;28;20036;-84
2024/02/06 04:04:29;;;;;;;19.38;4.70;;;9.70;99.90;;;;;;5097530;28;20100;-85
2024/02/06 04:06:56;;;;;;;20.55;3.95;;;9.70;99.90;;;;;;5093795;28;20044;-85
2024/02/06 04:09:22;;;;;;;16.00;4.50;;;9.70;99.90;;;;;;5094179;28;20039;-85
2024/02/06 04:11:49;;;;;;;22.15;4.88;;;9.70;99.90;;;;;;5094591;28;20094;-84
2024/02/06 04:14:16;;;;;;;16.92;3.92;;;9.70;99.90;;;;;;5105453;28;20602;-85
2024/02/06 04:16:42;;;;;;;23.13;3.42;;;9.70;99.90;;;;;;5114113;28;20039;-84
2024/02/06 04:19:09;;;;;;;27.48;3.80;;;9.70;99.90;;;;;;5113989;28;20484;-85
2024/02/06 04:21:35;;;;;;;18.23;3.72;;;10.40;99.90;;;;;;5099100;28;20041;-84
2024/02/06 04:24:04;;;;;;;14.13;2.97;;;10.10;99.90;;;;;;5109786;28;20036;-85
2024/02/06 04:26:30;;;;;;;21.98;4.05;;;9.80;99.90;;;;;;5106754;28;20056;-85
2024/02/06 04:28:57;;;;;;;18.58;3.40;;;9.70;99.90;;;;;;5101234;28;20043;-85
2024/02/06 04:31:23;;;;;;;18.50;3.30;;;9.70;99.90;;;;;;5107016;28;20093;-85
2024/02/06 04:33:50;;;;;;;21.02;4.05;;;9.70;99.90;;;;;;5106045;28;20040;-85
2024/02/06 04:36:17;;;;;;;14.35;2.85;;;10.30;99.90;;;;;;5123466;28;20036;-85
2024/02/06 04:38:44;;;;;;;23.15;3.25;;;10.20;99.90;;;;;;5100240;28;20044;-85
2024/02/06 04:41:11;;;;;;;10.63;2.80;;;9.70;99.90;;;;;;5109527;27;20035;-85
2024/02/06 04:43:38;;;;;;;19.17;3.58;;;9.80;99.90;;;;;;5104517;28;20040;-84
2024/02/06 04:46:04;;;;;;;12.50;3.00;;;9.70;99.90;;;;;;5097161;28;20043;-84
2024/02/06 04:48:31;;;;;;;11.88;3.00;;;10.00;99.90;;;;;;5109500;28;20124;-84
2024/02/06 04:50:58;;;;;;;12.13;2.97;;;10.20;99.90;;;;;;5104235;28;20032;-85
2024/02/06 04:53:25;;;;;;;19.00;3.38;;;9.80;99.90;;;;;;5103533;28;20442;-85
2024/02/06 04:55:52;;;;;;;18.25;3.25;;;9.70;99.90;;;;;;5113914;28;20101;-85
2024/02/06 04:58:20;;;;;;;11.68;3.00;;;9.70;99.90;;;;;;5098440;28;20035;-85
2024/02/06 05:00:46;;;;;;;17.40;3.25;;;9.70;99.90;;;;;;5115972;28;20036;-85
2024/02/06 05:03:13;;;;;;;17.70;3.15;;;10.00;99.90;;;;;;5101674;28;20040;-83
2024/02/06 05:05:39;;;;;;;15.85;3.55;;;9.70;99.90;;;;;;5104584;28;20043;-84
2024/02/06 05:08:06;;;;;;;13.98;3.55;;;9.90;99.90;;;;;;5109629;28;20047;-84
2024/02/06 05:10:33;;;;;;;16.90;2.88;;;9.70;99.90;;;;;;5104033;28;20036;-84
2024/02/06 05:12:59;;;;;;;16.27;3.10;;;9.70;99.90;;;;;;5108179;28;20495;-84
2024/02/06 05:15:26;;;;;;;18.67;3.88;;;10.10;99.90;;;;;;5112472;28;20165;-85
2024/02/06 05:17:53;;;;;;;17.25;2.90;;;9.70;99.90;;;;;;5113245;28;20040;-84
2024/02/06 05:20:19;;;;;;;18.35;2.70;;;9.80;99.90;;;;;;5112724;28;20041;-84
2024/02/06 05:22:46;;;;;;;14.02;3.28;;;9.70;99.90;;;;;;5101656;28;20035;-85
2024/02/06 05:25:12;;;;;;;18.75;2.95;;;9.70;99.90;;;;;;5106706;28;20078;-84
2024/02/06 05:27:39;;;;;;;14.85;3.15;;;9.70;99.90;;;;;;5098430;28;20496;-85
2024/02/06 05:30:06;;;;;;;13.52;2.70;;;10.00;99.90;;;;;;5107684;28;20050;-84
2024/02/06 05:32:36;;;;;;;14.60;2.92;;;9.70;99.90;;;;;;5100728;28;20466;-84
2024/02/06 05:35:04;;;;;;;10.02;2.50;;;9.70;99.90;;;;;;5099049;28;20115;-84
2024/02/06 05:37:31;;;;;;;15.50;2.97;;;9.70;99.90;;;;;;5109620;28;20032;-85
2024/02/06 05:39:58;;;;;;;14.02;2.70;;;10.50;99.90;;;;;;5104798;28;20381;-84
2024/02/06 05:42:24;;;;;;;15.80;3.55;;;9.80;99.90;;;;;;5103053;28;20108;-85
2024/02/06 05:44:51;;;;;;;15.52;2.63;;;9.70;99.90;;;;;;5096813;28;20035;-85
2024/02/06 05:47:18;;;;;;;13.95;2.78;;;9.70;99.90;;;;;;5108875;28;20429;-84
2024/02/06 05:49:44;;;;;;;12.95;2.67;;;9.70;99.90;;;;;;5119386;28;20032;-84
2024/02/06 05:52:11;;;;;;;15.75;2.30;;;9.70;99.90;;;;;;5139867;28;20100;-85
2024/02/06 05:54:38;;;;;;;15.70;2.58;;;9.70;99.90;;;;;;5107604;28;20040;-85
2024/02/06 05:57:05;;;;;;;11.13;2.50;;;9.70;99.90;;;;;;5098700;28;20040;-85
2024/02/06 05:59:32;;;;;;;14.70;2.83;;;9.70;99.90;;;;;;5115923;28;20042;-85
2024/02/06 06:01:59;;;;;;;12.25;2.58;;;9.70;99.90;;;;;;5097440;28;20063;-84
2024/02/06 06:04:25;;;;;;;11.57;2.53;;;9.70;99.90;;;;;;5095792;28;20117;-84
2024/02/06 06:06:52;;;;;;;12.70;2.42;;;9.80;99.90;;;;;;5099960;28;20059;-84
2024/02/06 06:09:19;;;;;;;14.52;2.45;;;9.70;99.90;;;;;;5109859;28;20127;-84
2024/02/06 06:11:45;;;;;;;11.02;2.53;;;9.70;99.90;;;;;;5100193;28;20118;-85
2024/02/06 06:14:12;;;;;;;15.23;2.95;;;9.80;99.90;;;;;;5107389;28;20127;-84
2024/02/06 06:16:39;;;;;;;15.23;2.40;;;10.00;99.90;;;;;;5100960;28;20042;-84
2024/02/06 06:19:05;;;;;;;13.75;2.47;;;10.30;99.90;;;;;;5112067;28;20511;-84
2024/02/06 06:21:33;;;;;;;11.30;2.38;;;9.80;99.90;;;;;;5103633;28;20031;-85
2024/02/06 06:23:59;;;;;;;11.65;2.47;;;9.80;99.90;;;;;;5107517;28;20765;-84
2024/02/06 06:26:26;;;;;;;9.45;2.45;;;9.70;99.90;;;;;;5113910;28;20131;-85
2024/02/06 06:28:52;;;;;;;8.85;2.30;;;9.80;99.90;;;;;;5120432;28;20468;-84
2024/02/06 06:31:19;;;;;;;11.77;2.78;;;9.80;99.90;;;;;;5095650;28;20067;-85
2024/02/06 06:33:46;;;;;;;17.38;2.78;;;10.20;99.90;;;;;;5095520;28;20067;-84
2024/02/06 06:36:12;;;;;;;15.30;2.95;;;9.80;99.90;;;;;;5114372;28;20531;-85
2024/02/06 06:38:39;;;;;;;14.98;3.47;;;9.80;99.90;;;;;;5121992;27;20035;-85
2024/02/06 06:41:06;;;;;;;13.95;2.50;;;10.30;99.90;;;;;;5109901;28;20085;-86
2024/02/06 06:43:32;;;;;;;13.98;3.00;;;9.90;99.90;;;;;;5105906;28;20043;-86
2024/02/06 06:45:59;;;;;;;19.27;2.97;;;10.00;99.90;;;;;;5096284;28;20397;-87
2024/02/06 06:48:27;;;;;;;15.68;2.65;;;9.90;99.90;;;;;;5103055;28;20115;-87
2024/02/06 06:50:54;;;;;;;19.65;3.30;;;9.90;99.90;;;;;;5107944;28;20108;-86
2024/02/06 06:53:21;;;;;;;15.30;2.95;;;10.00;99.90;;;;;;5094791;28;20067;-87
2024/02/06 06:55:47;;;;;;;12.68;2.67;;;10.00;99.90;;;;;;5110000;28;20039;-86
2024/02/06 06:58:14;;;;;;;15.48;2.50;;;10.50;99.90;;;;;;5128109;28;20044;-87
2024/02/06 07:00:40;;;;;;;10.23;2.35;;;10.00;99.90;;;;;;5104140;28;20036;-86
2024/02/06 07:03:07;;;;;;;13.43;2.88;;;10.00;99.90;;;;;;5096748;28;20127;-87
2024/02/06 07:05:34;;;;;;;10.85;2.35;;;10.00;99.90;;;;;;5097390;28;20089;-87
2024/02/06 07:08:00;;;;;;;14.35;3.22;;;10.30;99.90;;;;;;5096491;28;20036;-86
2024/02/06 07:10:27;;;;;;;16.77;3.10;;;10.00;99.90;;;;;;5093533;28;20484;-86
2024/02/06 07:12:53;;;;;;;15.60;2.63;;;10.00;99.90;;;;;;5097303;28;20055;-87
2024/02/06 07:15:20;;;;;;;17.75;2.80;;;10.00;99.90;;;;;;5102471;28;20043;-86
2024/02/06 07:17:47;;;;;;;15.48;2.90;;;10.00;99.90;;;;;;5101124;28;20047;-87
2024/02/06 07:20:14;;;;;;;16.38;2.45;;;9.90;99.90;;;;;;5100559;28;20515;-86
2024/02/06 07:22:40;;;;;;;16.75;3.35;;;9.90;99.90;;;;;;5101280;28;20032;-87
2024/02/06 07:25:07;;;;;;;17.15;3.03;;;10.20;99.90;;;;;;5094018;28;20102;-87
2024/02/06 07:27:34;;;;;;;12.30;3.13;;;9.80;99.90;;;;;;5098091;28;20059;-86
2024/02/06 07:30:02;;;;;;;13.32;2.90;;;9.80;99.90;;;;;;5099588;28;20032;-87
2024/02/06 07:32:28;;;;;;;19.77;3.13;;;9.80;99.90;;;;;;5100950;28;20728;-87
2024/02/06 07:34:55;;;;;;;13.73;2.88;;;9.70;99.90;;;;;;5100796;28;20036;-87
2024/02/06 07:37:23;;;;;;;18.60;2.63;;;9.70;99.90;;;;;;5102282;28;20074;-86
2024/02/06 07:39:49;;;;;;;13.57;2.78;;;9.70;99.90;;;;;;5104630;28;20039;-87
2024/02/06 07:42:16;;;;;;;15.95;3.45;;;9.70;99.90;;;;;;5109290;28;20039;-87
2024/02/06 07:44:42;;;;;;;18.27;4.25;;;9.60;99.90;;;;;;5107639;28;20043;-87
2024/02/06 07:47:09;;;;;;;13.30;2.75;;;9.60;99.90;;;;;;5101403;28;20504;-86
2024/02/06 07:49:36;;;;;;;12.68;2.60;;;9.70;99.90;;;;;;5101169;28;20123;-86
2024/02/06 07:52:05;;;;;;;17.88;2.95;;;9.60;99.90;;;;;;5102084;28;20054;-86
2024/02/06 07:54:35;;;;;;;19.50;3.30;;;9.60;99.90;;;;;;5097133;28;20043;-87
2024/02/06 07:57:02;;;;;;;15.07;2.83;;;9.60;99.90;;;;;;5107061;28;20044;-86
2024/02/06 07:59:28;;;;;;;16.23;2.95;;;9.60;99.90;;;;;;5124201;28;20042;-86
2024/02/06 08:01:55;;;;;;;14.52;2.83;;;9.60;99.90;;;;;;5098605;28;20101;-86
2024/02/06 08:04:22;;;;;;;12.40;2.63;;;9.60;99.90;;;;;;5104161;28;20416;-86
2024/02/06 08:06:48;;;;;;;19.25;2.85;;;9.60;99.90;;;;;;5103118;28;20043;-87
2024/02/06 08:09:18;;;;;;;15.93;2.60;;;9.60;99.90;;;;;;5114044;28;20511;-87
2024/02/06 08:11:45;;;;;;;14.75;2.80;;;9.60;99.90;;;;;;5105933;28;20400;-85
2024/02/06 08:14:13;;;;;;;10.82;2.80;;;9.60;99.90;;;;;;5101498;28;20036;-85
2024/02/06 08:16:41;;;;;;;14.63;2.85;;;9.50;99.90;;;;;;5104492;28;20032;-85
2024/02/06 08:19:08;;;;;;;13.13;3.13;;;9.60;99.90;;;;;;5102646;28;20035;-85
2024/02/06 08:21:35;;;;;;;15.18;3.38;;;9.60;99.90;;;;;;5103747;28;20135;-86
2024/02/06 08:24:02;;;;;;;15.98;2.72;;;9.60;99.90;;;;;;5114379;28;20111;-86
2024/02/06 08:26:29;;;;;;;11.82;2.13;;;9.60;99.90;;;;;;5103259;28;20052;-86
2024/02/06 08:28:56;;;;;;;16.85;2.72;;;9.60;99.90;;;;;;5111784;28;20044;-86
2024/02/06 08:31:22;;;;;;;10.18;1.98;;;9.70;99.90;;;;;;5105780;28;20032;-86
2024/02/06 08:33:50;;;;;;;17.95;2.63;;;9.70;99.90;;;;;;5107589;28;20821;-86
2024/02/06 08:36:17;;;;;;;12.20;2.33;;;9.80;99.90;;;;;;5113429;28;20047;-86
2024/02/06 08:38:44;;;;;;;11.73;2.50;;;9.80;99.90;;;;;;5118135;28;20052;-85
2024/02/06 08:41:11;;;;;;;14.57;2.60;;;10.00;99.90;;;;;;5104225;28;20132;-85
2024/02/06 08:43:38;;;;;;;15.40;2.42;;;9.90;99.90;;;;;;5103921;28;20040;-86
2024/02/06 08:46:05;;;;;;;13.65;2.28;;;10.10;99.90;;;;;;5106846;28;20054;-85
2024/02/06 08:48:32;;;;;;;15.20;2.45;;;10.10;99.90;;;;;;5118939;28;20378;-86
2024/02/06 08:50:59;;;;;;;15.88;2.75;;;10.10;99.90;;;;;;5123480;28;20084;-87
2024/02/06 08:53:29;;;;;;;9.68;1.88;;;10.10;99.90;;;;;;5117525;28;22535;-85
2024/02/06 08:55:59;;;;;;;10.30;2.38;;;10.10;99.90;;;;;;5109328;28;20104;-86
2024/02/06 08:58:25;;;;;;;14.63;2.53;;;10.20;99.90;;;;;;5116633;28;20088;-85
2024/02/06 09:00:52;;;;;;;11.85;1.98;;;10.40;99.90;;;;;;5106299;28;20028;-85
2024/02/06 09:03:18;;;;;;;13.25;2.15;;;10.60;99.90;;;;;;5127173;28;20118;-85
2024/02/06 09:05:45;;;;;;;10.43;2.10;;;10.20;99.90;;;;;;5124385;28;20404;-86
2024/02/06 09:08:12;;;;;;;10.73;2.10;;;10.20;99.90;;;;;;5100697;28;20044;-85
2024/02/06 09:10:38;;;;;;;10.30;2.00;;;10.20;99.90;;;;;;5119933;28;20032;-87
2024/02/06 09:13:05;;;;;;;14.43;2.50;;;10.20;99.90;;;;;;5113155;28;20040;-85
2024/02/06 09:15:32;;;;;;;14.85;2.40;;;10.40;99.90;;;;;;5098675;28;20484;-86
2024/02/06 09:18:00;;;;;;;10.57;2.30;;;10.50;99.90;;;;;;5103995;28;20047;-86
2024/02/06 09:20:27;;;;;;;14.57;2.38;;;10.60;99.90;;;;;;5112597;28;20044;-86
2024/02/06 09:22:54;;;;;;;11.70;2.42;;;10.30;99.90;;;;;;5098788;28;20044;-86
2024/02/06 09:25:21;;;;;;;15.00;2.25;;;10.30;99.90;;;;;;5098524;28;20043;-87
2024/02/06 09:27:48;;;;;;;14.57;2.45;;;10.40;99.90;;;;;;5121781;28;20524;-87
2024/02/06 09:30:17;;;;;;;9.80;2.28;;;10.40;99.90;;;;;;5096735;28;20040;-86
2024/02/06 09:32:43;;;;;;;18.13;3.10;;;10.50;99.90;;;;;;5102555;28;20405;-87
2024/02/06 09:35:10;;;;;;;11.48;2.17;;;10.50;99.90;;;;;;5108954;28;20044;-87
2024/02/06 09:37:37;;;;;;;18.20;3.28;;;10.50;99.90;;;;;;5111541;28;20050;-86
2024/02/06 09:40:04;;;;;;;12.18;2.70;;;10.50;99.90;;;;;;5111228;28;20113;-85
2024/02/06 09:42:32;;;;;;;13.10;2.80;;;10.50;99.90;;;;;;5105124;28;20509;-86
2024/02/06 09:44:59;;;;;;;16.38;2.53;;;10.70;99.90;;;;;;5105286;28;20038;-86
2024/02/06 09:47:27;;;;;;;12.43;2.60;;;10.50;99.90;;;;;;5100601;28;20027;-86
2024/02/06 09:49:55;;;;;;;16.45;2.95;;;10.50;99.90;;;;;;5097354;28;20044;-86
2024/02/06 09:52:22;;;;;;;13.77;2.80;;;10.50;99.90;;;;;;5101224;28;20032;-86
2024/02/06 09:54:50;;;;;;;15.93;2.78;;;10.60;99.90;;;;;;5101242;28;20494;-87
2024/02/06 09:57:21;;;;;;;17.30;3.10;;;10.70;99.90;;;;;;5099024;28;20044;-85
2024/02/06 09:59:53;;;;;;;20.85;3.83;;;10.60;99.90;;;;;;5099853;28;20515;-86
2024/02/06 10:02:23;;;;;;;17.90;2.90;;;10.60;99.90;;;;;;5095684;28;20039;-86
2024/02/06 10:04:53;;;;;;;12.32;2.08;;;10.60;99.90;;;;;;5099152;28;20050;-86
2024/02/06 10:07:21;;;;;;;20.58;2.70;;;11.00;99.90;;;;;;5097463;28;20062;-86
2024/02/06 10:09:51;;;;;;;21.20;3.38;;;10.60;99.90;;;;;;5103510;28;20045;-86
2024/02/06 10:12:18;;;;;;;16.13;3.15;;;10.60;99.90;;;;;;5099158;28;20035;-87
2024/02/06 10:14:45;;;;;;;15.27;2.65;;;10.60;99.90;;;;;;5106474;28;20027;-86
2024/02/06 10:17:14;;;;;;;13.88;2.63;;;10.60;99.90;;;;;;5113493;28;20035;-87
2024/02/06 10:19:41;;;;;;;15.57;3.53;;;10.60;99.90;;;;;;5108652;28;20040;-87
2024/02/06 10:22:09;;;;;;;15.10;2.17;;;10.70;99.90;;;;;;5102218;28;20048;-86
2024/02/06 10:24:35;;;;;;;17.77;3.50;;;11.00;99.90;;;;;;5113372;28;20039;-86
2024/02/06 10:27:03;;;;;;;17.75;2.85;;;10.70;99.90;;;;;;5095503;28;20056;-85
2024/02/06 10:29:31;;;;;;;18.30;3.13;;;10.80;99.90;;;;;;5113474;28;20044;-87
2024/02/06 10:31:58;;;;;;;14.98;2.92;;;10.70;99.90;;;;;;5115259;28;20042;-86
2024/02/06 10:34:28;;;;;;;11.48;2.80;;;10.70;99.90;;;;;;5099223;28;20119;-86
2024/02/06 10:37:01;;;;;;;13.35;2.85;;;10.90;99.90;;;;;;5123661;28;20457;-87
2024/02/06 10:39:28;;;;;;;16.10;2.80;;;11.00;99.90;;;;;;5119632;28;20123;-86
2024/02/06 10:41:59;;;;;;;16.85;3.35;;;10.70;99.90;;;;;;5111423;28;20047;-85
2024/02/06 10:44:28;;;;;;;11.65;2.80;;;10.70;99.90;;;;;;5115838;28;20032;-86
2024/02/06 10:47:01;;;;;;;13.15;2.75;;;10.70;99.90;;;;;;5110699;28;20120;-86
2024/02/06 10:49:30;;;;;;;14.88;2.67;;;10.80;99.90;;;;;;5108056;28;20177;-86
2024/02/06 10:52:05;;;;;;;11.48;2.85;;;11.10;99.90;;;;;;5103938;28;20038;-86
2024/02/06 10:54:36;;;;;;;15.23;2.90;;;10.80;99.90;;;;;;5103929;28;20096;-86
2024/02/06 10:57:07;;;;;;;11.52;2.30;;;10.80;99.90;;;;;;5120990;28;20511;-86
2024/02/06 10:59:51;;;;;;;13.57;2.88;;;11.20;99.90;;;;;;5113063;28;20040;-86
2024/02/06 11:02:28;;;;;;;19.92;3.22;;;10.90;99.90;;;;;;5113919;28;20073;-87
2024/02/06 11:05:23;;;;;;;19.80;2.97;;;10.90;99.90;;;;;;5126031;28;20104;-87
2024/02/06 11:07:52;;;;;;;16.23;2.78;;;10.90;99.90;;;;;;5081773;28;20671;-87
2024/02/06 11:10:23;;;;;;;16.17;3.15;;;10.90;99.90;;;;;;5106760;28;20075;-87
2024/02/06 11:12:58;;;;;;;16.63;3.03;;;10.90;99.90;;;;;;5107463;28;20043;-87
2024/02/06 11:15:27;;;;;;;15.75;2.85;;;10.90;99.90;;;;;;5118849;28;20036;-86
2024/02/06 11:17:54;;;;;;;19.60;3.22;;;10.90;99.90;;;;;;5105581;28;20758;-86
2024/02/06 11:20:27;;;;;;;16.90;2.72;;;11.00;99.90;;;;;;5110970;28;20128;-86
2024/02/06 11:22:57;;;;;;;12.70;2.83;;;11.00;99.90;;;;;;5112996;28;20044;-86
2024/02/06 11:25:27;;;;;;;13.45;2.72;;;11.10;99.90;;;;;;5098341;28;20042;-86
2024/02/06 11:27:55;;;;;;;19.50;3.20;;;11.10;99.90;;;;;;5121028;28;20060;-86
2024/02/06 11:30:22;;;;;;;10.65;2.72;;;11.10;99.90;;;;;;5102838;28;20081;-86
2024/02/06 11:33:09;;;;;;;14.60;2.88;;;11.20;99.90;;;;;;5116688;28;20093;-87
2024/02/06 11:35:36;;;;;;;16.00;2.80;;;11.40;99.90;;;;;;5107941;28;20078;-87
2024/02/06 11:38:03;;;;;;;16.83;2.45;;;11.20;99.90;;;;;;5105215;28;20071;-86
2024/02/06 11:40:31;;;;;;;14.75;2.47;;;11.20;99.90;;;;;;5106382;28;20443;-86
2024/02/06 11:43:02;;;;;;;16.30;3.30;;;11.30;99.90;;;;;;5120533;28;20046;-86
2024/02/06 11:45:31;;;;;;;19.73;2.75;;;11.30;99.90;;;;;;5122767;28;20128;-86
2024/02/06 11:48:03;;;;;;;13.60;2.50;;;11.30;99.90;;;;;;5099929;28;20036;-83
2024/02/06 11:50:43;;;;;;;12.40;2.22;;;11.30;99.90;;;;;;5121440;28;20046;-85
2024/02/06 11:53:17;;;;;;;18.65;2.58;;;11.30;99.90;;;;;;5094802;28;20062;-96
2024/02/06 11:55:44;;;;;;;11.95;2.47;;;11.40;99.90;;;;;;5094835;28;20119;-95
2024/02/06 11:58:13;;;;;;;13.38;2.97;;;11.30;99.90;;;;;;5099794;28;20040;-95
2024/02/06 12:00:43;;;;;;;10.52;2.38;;;11.30;99.90;;;;;;5110169;28;20035;-94
2024/02/06 12:03:13;;;;;;;14.40;2.58;;;11.40;99.90;;;;;;5109408;28;20897;-95
2024/02/06 12:05:43;;;;;;;21.25;2.85;;;11.50;99.90;;;;;;5121789;28;20032;-96
2024/02/06 12:08:19;;;;;;;15.07;2.95;;;11.50;99.90;;;;;;5105939;28;20091;-95
2024/02/06 12:10:47;;;;;;;13.70;2.58;;;12.20;99.90;;;;;;5104208;28;20032;-95
2024/02/06 12:13:14;;;;;;;16.70;3.92;;;11.50;99.90;;;;;;5099861;28;20570;-96
2024/02/06 12:15:41;;;;;;;14.82;2.42;;;11.50;99.90;;;;;;5098552;28;20084;-96
2024/02/06 12:18:14;;;;;;;9.95;2.42;;;11.50;99.90;;;;;;5115931;28;20035;-96
2024/02/06 12:20:41;;;;;;;11.18;2.33;;;11.50;99.90;;;;;;5103998;28;20043;-96
2024/02/06 12:23:09;;;;;;;9.27;2.17;;;11.60;99.90;;;;;;5097620;28;20046;-95
2024/02/06 12:25:41;;;;;;;16.17;3.50;;;11.50;99.90;;;;;;5120243;28;20051;-96
2024/02/06 12:28:15;;;;;;;10.13;2.95;;;11.70;99.90;;;;;;5106002;28;20108;-96
2024/02/06 12:30:48;;;;;;;16.30;3.17;;;11.60;99.90;;;;;;5102672;28;20035;-95
2024/02/06 12:33:15;;;;;;;13.38;3.55;;;11.60;99.90;;;;;;5111891;28;20032;-96
2024/02/06 12:35:43;;;;;;;12.82;2.90;;;11.60;99.90;;;;;;5106356;28;20039;-96
2024/02/06 12:38:10;;;;;;;14.35;3.22;;;11.60;99.90;;;;;;5103959;28;20058;-96
2024/02/06 12:40:37;;;;;;;16.00;2.70;;;11.90;99.90;;;;;;5113426;28;20047;-93
2024/02/06 12:43:06;;;;;;;11.43;2.97;;;12.10;99.90;;;;;;5110333;28;20043;-95
2024/02/06 12:45:37;;;;;;;14.85;2.85;;;11.40;99.90;;;;;;5107892;28;20457;-94